sensor_id;sensor_type;location;lat;lon;timestamp;P1;durP1;ratioP1;P2;durP2;ratioP2
11151;SDS011;5630;49.342;10.802;2022-07-23T00:00:36;13.77;;;8.30;;
11151;SDS011;5630;49.342;10.802;2022-07-23T00:03:01;9.60;;;8.33;;
11151;SDS011;5630;49.342;10.802;2022-07-23T00:05:27;8.50;;;7.73;;
11151;SDS011;5630;49.342;10.802;2022-07-23T00:07:52;9.10;;;8.20;;
11151;SDS011;5630;49.342;10.802;2022-07-23T00:10:18;10.10;;;8.30;;
11151;SDS011;5630;49.342;10.802;2022-07-23T00:12:43;10.03;;;7.80;;
11151;SDS011;5630;49.342;10.802;2022-07-23T00:15:09;14.60;;;8.70;;
11151;SDS011;5630;49.342;10.802;2022-07-23T00:17:35;13.93;;;9.03;;
11151;SDS011;5630;49.342;10.802;2022-07-23T00:20:01;11.13;;;8.83;;
11151;SDS011;5630;49.342;10.802;2022-07-23T00:22:27;16.50;;;9.57;;
11151;SDS011;5630;49.342;10.802;2022-07-23T00:24:54;11.00;;;9.17;;
11151;SDS011;5630;49.342;10.802;2022-07-23T00:27:20;11.27;;;10.17;;
11151;SDS011;5630;49.342;10.802;2022-07-23T00:29:45;10.67;;;8.70;;
11151;SDS011;5630;49.342;10.802;2022-07-23T00:32:11;12.43;;;8.80;;
11151;SDS011;5630;49.342;10.802;2022-07-23T00:34:36;11.23;;;9.30;;
11151;SDS011;5630;49.342;10.802;2022-07-23T00:37:02;10.53;;;9.40;;
11151;SDS011;5630;49.342;10.802;2022-07-23T00:39:28;11.87;;;8.63;;
11151;SDS011;5630;49.342;10.802;2022-07-23T00:41:53;11.70;;;8.40;;
11151;SDS011;5630;49.342;10.802;2022-07-23T00:44:23;10.50;;;9.50;;
11151;SDS011;5630;49.342;10.802;2022-07-23T00:46:51;12.90;;;9.03;;
11151;SDS011;5630;49.342;10.802;2022-07-23T00:49:21;13.77;;;8.70;;
11151;SDS011;5630;49.342;10.802;2022-07-23T00:51:48;10.33;;;9.20;;
11151;SDS011;5630;49.342;10.802;2022-07-23T00:54:15;11.27;;;9.07;;
11151;SDS011;5630;49.342;10.802;2022-07-23T00:56:42;15.27;;;9.10;;
11151;SDS011;5630;49.342;10.802;2022-07-23T00:59:09;11.53;;;8.27;;
11151;SDS011;5630;49.342;10.802;2022-07-23T01:01:35;9.93;;;8.93;;
11151;SDS011;5630;49.342;10.802;2022-07-23T01:04:01;9.37;;;8.37;;
11151;SDS011;5630;49.342;10.802;2022-07-23T01:06:27;9.23;;;8.30;;
11151;SDS011;5630;49.342;10.802;2022-07-23T01:08:55;10.67;;;8.80;;
11151;SDS011;5630;49.342;10.802;2022-07-23T01:11:22;9.70;;;8.70;;
11151;SDS011;5630;49.342;10.802;2022-07-23T01:13:48;9.80;;;8.43;;
11151;SDS011;5630;49.342;10.802;2022-07-23T01:16:14;10.73;;;8.87;;
11151;SDS011;5630;49.342;10.802;2022-07-23T01:18:39;9.33;;;8.33;;
11151;SDS011;5630;49.342;10.802;2022-07-23T01:21:05;13.43;;;8.77;;
11151;SDS011;5630;49.342;10.802;2022-07-23T01:23:31;12.10;;;9.17;;
11151;SDS011;5630;49.342;10.802;2022-07-23T01:25:56;12.10;;;8.47;;
11151;SDS011;5630;49.342;10.802;2022-07-23T01:28:22;10.50;;;8.20;;
11151;SDS011;5630;49.342;10.802;2022-07-23T01:30:48;8.93;;;8.00;;
11151;SDS011;5630;49.342;10.802;2022-07-23T01:33:14;10.83;;;8.90;;
11151;SDS011;5630;49.342;10.802;2022-07-23T01:35:40;9.90;;;8.63;;
11151;SDS011;5630;49.342;10.802;2022-07-23T01:38:05;12.40;;;9.07;;
11151;SDS011;5630;49.342;10.802;2022-07-23T01:40:31;9.80;;;8.80;;
11151;SDS011;5630;49.342;10.802;2022-07-23T01:42:57;8.77;;;7.90;;
11151;SDS011;5630;49.342;10.802;2022-07-23T01:45:22;9.20;;;7.97;;
11151;SDS011;5630;49.342;10.802;2022-07-23T01:47:48;9.53;;;8.30;;
11151;SDS011;5630;49.342;10.802;2022-07-23T01:50:14;8.77;;;7.93;;
11151;SDS011;5630;49.342;10.802;2022-07-23T01:52:40;8.80;;;8.00;;
11151;SDS011;5630;49.342;10.802;2022-07-23T01:55:06;9.03;;;7.43;;
11151;SDS011;5630;49.342;10.802;2022-07-23T01:57:32;8.83;;;7.77;;
11151;SDS011;5630;49.342;10.802;2022-07-23T01:59:58;9.50;;;7.70;;
11151;SDS011;5630;49.342;10.802;2022-07-23T02:02:24;9.03;;;8.17;;
11151;SDS011;5630;49.342;10.802;2022-07-23T02:04:49;9.50;;;8.07;;
11151;SDS011;5630;49.342;10.802;2022-07-23T02:07:15;8.60;;;7.70;;
11151;SDS011;5630;49.342;10.802;2022-07-23T02:09:41;12.37;;;7.60;;
11151;SDS011;5630;49.342;10.802;2022-07-23T02:12:06;9.63;;;7.73;;
11151;SDS011;5630;49.342;10.802;2022-07-23T02:14:32;8.80;;;7.90;;
11151;SDS011;5630;49.342;10.802;2022-07-23T02:16:58;12.73;;;7.87;;
11151;SDS011;5630;49.342;10.802;2022-07-23T02:19:24;10.37;;;8.20;;
11151;SDS011;5630;49.342;10.802;2022-07-23T02:21:49;10.63;;;7.83;;
11151;SDS011;5630;49.342;10.802;2022-07-23T02:24:15;11.00;;;8.10;;
11151;SDS011;5630;49.342;10.802;2022-07-23T02:26:41;9.13;;;7.60;;
11151;SDS011;5630;49.342;10.802;2022-07-23T02:29:07;11.13;;;7.90;;
11151;SDS011;5630;49.342;10.802;2022-07-23T02:31:33;14.97;;;8.27;;
11151;SDS011;5630;49.342;10.802;2022-07-23T02:33:59;8.20;;;7.40;;
11151;SDS011;5630;49.342;10.802;2022-07-23T02:36:25;8.33;;;7.27;;
11151;SDS011;5630;49.342;10.802;2022-07-23T02:38:51;9.27;;;7.60;;
11151;SDS011;5630;49.342;10.802;2022-07-23T02:41:16;11.30;;;8.07;;
11151;SDS011;5630;49.342;10.802;2022-07-23T02:43:42;10.13;;;8.50;;
11151;SDS011;5630;49.342;10.802;2022-07-23T02:46:08;9.50;;;7.97;;
11151;SDS011;5630;49.342;10.802;2022-07-23T02:48:33;9.43;;;7.20;;
11151;SDS011;5630;49.342;10.802;2022-07-23T02:50:59;9.30;;;8.30;;
11151;SDS011;5630;49.342;10.802;2022-07-23T02:53:24;9.53;;;8.03;;
11151;SDS011;5630;49.342;10.802;2022-07-23T02:55:51;10.33;;;7.90;;
11151;SDS011;5630;49.342;10.802;2022-07-23T02:58:16;8.57;;;7.63;;
11151;SDS011;5630;49.342;10.802;2022-07-23T03:00:42;10.00;;;7.83;;
11151;SDS011;5630;49.342;10.802;2022-07-23T03:03:08;8.83;;;7.93;;
11151;SDS011;5630;49.342;10.802;2022-07-23T03:05:33;8.60;;;7.77;;
11151;SDS011;5630;49.342;10.802;2022-07-23T03:07:59;9.00;;;7.80;;
11151;SDS011;5630;49.342;10.802;2022-07-23T03:10:25;8.97;;;7.70;;
11151;SDS011;5630;49.342;10.802;2022-07-23T03:12:51;9.33;;;7.90;;
11151;SDS011;5630;49.342;10.802;2022-07-23T03:15:16;8.47;;;7.57;;
11151;SDS011;5630;49.342;10.802;2022-07-23T03:17:42;8.70;;;7.80;;
11151;SDS011;5630;49.342;10.802;2022-07-23T03:20:08;10.53;;;7.70;;
11151;SDS011;5630;49.342;10.802;2022-07-23T03:22:34;7.83;;;6.87;;
11151;SDS011;5630;49.342;10.802;2022-07-23T03:25:00;8.63;;;6.97;;
11151;SDS011;5630;49.342;10.802;2022-07-23T03:27:26;10.67;;;7.57;;
11151;SDS011;5630;49.342;10.802;2022-07-23T03:29:54;7.90;;;7.10;;
11151;SDS011;5630;49.342;10.802;2022-07-23T03:32:21;9.97;;;6.70;;
11151;SDS011;5630;49.342;10.802;2022-07-23T03:34:47;7.50;;;6.70;;
11151;SDS011;5630;49.342;10.802;2022-07-23T03:37:13;8.97;;;6.67;;
11151;SDS011;5630;49.342;10.802;2022-07-23T03:39:39;9.10;;;6.93;;
11151;SDS011;5630;49.342;10.802;2022-07-23T03:42:05;7.57;;;6.50;;
11151;SDS011;5630;49.342;10.802;2022-07-23T03:44:31;8.70;;;6.20;;
11151;SDS011;5630;49.342;10.802;2022-07-23T03:46:57;8.77;;;6.20;;
11151;SDS011;5630;49.342;10.802;2022-07-23T03:49:23;7.27;;;6.40;;
11151;SDS011;5630;49.342;10.802;2022-07-23T03:51:49;8.97;;;5.77;;
11151;SDS011;5630;49.342;10.802;2022-07-23T03:54:14;7.97;;;6.37;;
11151;SDS011;5630;49.342;10.802;2022-07-23T03:56:40;9.27;;;5.80;;
11151;SDS011;5630;49.342;10.802;2022-07-23T03:59:07;8.97;;;5.80;;
11151;SDS011;5630;49.342;10.802;2022-07-23T04:01:33;7.13;;;5.60;;
11151;SDS011;5630;49.342;10.802;2022-07-23T04:03:59;5.77;;;5.17;;
11151;SDS011;5630;49.342;10.802;2022-07-23T04:06:24;6.43;;;5.80;;
11151;SDS011;5630;49.342;10.802;2022-07-23T04:08:50;6.53;;;5.53;;
11151;SDS011;5630;49.342;10.802;2022-07-23T04:11:16;7.93;;;5.50;;
11151;SDS011;5630;49.342;10.802;2022-07-23T04:13:41;6.40;;;5.70;;
11151;SDS011;5630;49.342;10.802;2022-07-23T04:16:07;6.30;;;5.70;;
11151;SDS011;5630;49.342;10.802;2022-07-23T04:18:32;5.77;;;5.23;;
11151;SDS011;5630;49.342;10.802;2022-07-23T04:20:58;7.63;;;5.27;;
11151;SDS011;5630;49.342;10.802;2022-07-23T04:23:23;6.33;;;5.73;;
11151;SDS011;5630;49.342;10.802;2022-07-23T04:25:49;6.67;;;5.47;;
11151;SDS011;5630;49.342;10.802;2022-07-23T04:28:15;6.53;;;5.17;;
11151;SDS011;5630;49.342;10.802;2022-07-23T04:30:40;7.47;;;5.77;;
11151;SDS011;5630;49.342;10.802;2022-07-23T04:33:06;6.10;;;5.50;;
11151;SDS011;5630;49.342;10.802;2022-07-23T04:35:32;6.40;;;5.37;;
11151;SDS011;5630;49.342;10.802;2022-07-23T04:37:58;6.37;;;5.20;;
11151;SDS011;5630;49.342;10.802;2022-07-23T04:40:24;5.87;;;5.37;;
11151;SDS011;5630;49.342;10.802;2022-07-23T04:42:50;6.57;;;5.77;;
11151;SDS011;5630;49.342;10.802;2022-07-23T04:45:16;5.93;;;5.43;;
11151;SDS011;5630;49.342;10.802;2022-07-23T04:47:41;6.73;;;5.37;;
11151;SDS011;5630;49.342;10.802;2022-07-23T04:50:07;6.27;;;5.70;;
11151;SDS011;5630;49.342;10.802;2022-07-23T04:52:32;6.73;;;4.90;;
11151;SDS011;5630;49.342;10.802;2022-07-23T04:55:01;6.77;;;5.63;;
11151;SDS011;5630;49.342;10.802;2022-07-23T04:57:27;5.87;;;4.97;;
11151;SDS011;5630;49.342;10.802;2022-07-23T04:59:53;5.40;;;4.83;;
11151;SDS011;5630;49.342;10.802;2022-07-23T05:02:18;5.67;;;5.17;;
11151;SDS011;5630;49.342;10.802;2022-07-23T05:04:44;5.90;;;5.23;;
11151;SDS011;5630;49.342;10.802;2022-07-23T05:07:09;5.73;;;5.17;;
11151;SDS011;5630;49.342;10.802;2022-07-23T05:09:35;5.67;;;5.13;;
11151;SDS011;5630;49.342;10.802;2022-07-23T05:12:01;7.07;;;5.43;;
11151;SDS011;5630;49.342;10.802;2022-07-23T05:14:26;5.63;;;5.17;;
11151;SDS011;5630;49.342;10.802;2022-07-23T05:16:52;5.03;;;4.60;;
11151;SDS011;5630;49.342;10.802;2022-07-23T05:19:18;6.40;;;5.43;;
11151;SDS011;5630;49.342;10.802;2022-07-23T05:21:44;7.17;;;5.10;;
11151;SDS011;5630;49.342;10.802;2022-07-23T05:24:09;7.57;;;5.20;;
11151;SDS011;5630;49.342;10.802;2022-07-23T05:26:35;6.53;;;5.17;;
11151;SDS011;5630;49.342;10.802;2022-07-23T05:29:00;8.13;;;4.93;;
11151;SDS011;5630;49.342;10.802;2022-07-23T05:31:26;7.50;;;5.17;;
11151;SDS011;5630;49.342;10.802;2022-07-23T05:33:52;5.10;;;4.67;;
11151;SDS011;5630;49.342;10.802;2022-07-23T05:36:17;6.33;;;5.70;;
11151;SDS011;5630;49.342;10.802;2022-07-23T05:38:43;7.83;;;5.33;;
11151;SDS011;5630;49.342;10.802;2022-07-23T05:41:08;5.93;;;5.40;;
11151;SDS011;5630;49.342;10.802;2022-07-23T05:43:34;5.60;;;5.10;;
11151;SDS011;5630;49.342;10.802;2022-07-23T05:45:59;5.50;;;5.00;;
11151;SDS011;5630;49.342;10.802;2022-07-23T05:48:25;5.47;;;4.83;;
11151;SDS011;5630;49.342;10.802;2022-07-23T05:50:51;8.03;;;5.20;;
11151;SDS011;5630;49.342;10.802;2022-07-23T05:53:16;7.20;;;5.47;;
11151;SDS011;5630;49.342;10.802;2022-07-23T05:55:42;5.37;;;4.87;;
11151;SDS011;5630;49.342;10.802;2022-07-23T05:58:07;6.03;;;5.30;;
11151;SDS011;5630;49.342;10.802;2022-07-23T06:00:33;8.27;;;5.23;;
11151;SDS011;5630;49.342;10.802;2022-07-23T06:02:59;7.53;;;5.07;;
11151;SDS011;5630;49.342;10.802;2022-07-23T06:05:25;8.30;;;5.30;;
11151;SDS011;5630;49.342;10.802;2022-07-23T06:07:51;5.70;;;5.13;;
11151;SDS011;5630;49.342;10.802;2022-07-23T06:10:18;5.87;;;5.07;;
11151;SDS011;5630;49.342;10.802;2022-07-23T06:12:44;5.50;;;5.00;;
11151;SDS011;5630;49.342;10.802;2022-07-23T06:15:09;5.40;;;4.90;;
11151;SDS011;5630;49.342;10.802;2022-07-23T06:17:36;9.07;;;5.03;;
11151;SDS011;5630;49.342;10.802;2022-07-23T06:20:04;5.83;;;5.13;;
11151;SDS011;5630;49.342;10.802;2022-07-23T06:22:31;5.57;;;4.83;;
11151;SDS011;5630;49.342;10.802;2022-07-23T06:24:56;8.10;;;5.00;;
11151;SDS011;5630;49.342;10.802;2022-07-23T06:27:22;5.40;;;4.90;;
11151;SDS011;5630;49.342;10.802;2022-07-23T06:29:47;6.30;;;5.40;;
11151;SDS011;5630;49.342;10.802;2022-07-23T06:32:13;8.00;;;5.07;;
11151;SDS011;5630;49.342;10.802;2022-07-23T06:34:38;5.87;;;5.33;;
11151;SDS011;5630;49.342;10.802;2022-07-23T06:37:04;6.27;;;5.60;;
11151;SDS011;5630;49.342;10.802;2022-07-23T06:39:30;6.53;;;4.93;;
11151;SDS011;5630;49.342;10.802;2022-07-23T06:41:55;5.77;;;5.27;;
11151;SDS011;5630;49.342;10.802;2022-07-23T06:44:21;6.43;;;5.23;;
11151;SDS011;5630;49.342;10.802;2022-07-23T06:46:47;5.73;;;5.23;;
11151;SDS011;5630;49.342;10.802;2022-07-23T06:49:12;5.37;;;4.87;;
11151;SDS011;5630;49.342;10.802;2022-07-23T06:51:38;6.33;;;5.13;;
11151;SDS011;5630;49.342;10.802;2022-07-23T06:54:03;6.07;;;5.33;;
11151;SDS011;5630;49.342;10.802;2022-07-23T06:56:29;6.63;;;6.03;;
11151;SDS011;5630;49.342;10.802;2022-07-23T06:58:55;8.83;;;5.87;;
11151;SDS011;5630;49.342;10.802;2022-07-23T07:01:20;6.53;;;5.63;;
11151;SDS011;5630;49.342;10.802;2022-07-23T07:03:46;8.80;;;5.47;;
11151;SDS011;5630;49.342;10.802;2022-07-23T07:06:12;6.50;;;5.83;;
11151;SDS011;5630;49.342;10.802;2022-07-23T07:08:38;7.60;;;6.30;;
11151;SDS011;5630;49.342;10.802;2022-07-23T07:11:04;6.97;;;6.17;;
11151;SDS011;5630;49.342;10.802;2022-07-23T07:13:29;9.13;;;6.43;;
11151;SDS011;5630;49.342;10.802;2022-07-23T07:15:55;11.10;;;6.63;;
11151;SDS011;5630;49.342;10.802;2022-07-23T07:18:20;8.90;;;6.03;;
11151;SDS011;5630;49.342;10.802;2022-07-23T07:20:46;8.70;;;6.17;;
11151;SDS011;5630;49.342;10.802;2022-07-23T07:23:12;7.40;;;6.43;;
11151;SDS011;5630;49.342;10.802;2022-07-23T07:25:38;8.40;;;6.33;;
11151;SDS011;5630;49.342;10.802;2022-07-23T07:28:04;7.23;;;6.40;;
11151;SDS011;5630;49.342;10.802;2022-07-23T07:30:29;9.50;;;6.53;;
11151;SDS011;5630;49.342;10.802;2022-07-23T07:32:55;8.70;;;6.13;;
11151;SDS011;5630;49.342;10.802;2022-07-23T07:35:20;8.27;;;6.40;;
11151;SDS011;5630;49.342;10.802;2022-07-23T07:37:46;7.27;;;6.57;;
11151;SDS011;5630;49.342;10.802;2022-07-23T07:40:11;8.27;;;6.80;;
11151;SDS011;5630;49.342;10.802;2022-07-23T07:42:44;10.80;;;6.83;;
11151;SDS011;5630;49.342;10.802;2022-07-23T07:45:13;9.77;;;6.63;;
11151;SDS011;5630;49.342;10.802;2022-07-23T07:47:40;7.70;;;6.90;;
11151;SDS011;5630;49.342;10.802;2022-07-23T07:50:06;7.30;;;6.60;;
11151;SDS011;5630;49.342;10.802;2022-07-23T07:52:33;6.60;;;6.00;;
11151;SDS011;5630;49.342;10.802;2022-07-23T07:55:01;7.23;;;6.53;;
11151;SDS011;5630;49.342;10.802;2022-07-23T07:57:28;7.50;;;6.60;;
11151;SDS011;5630;49.342;10.802;2022-07-23T07:59:53;9.97;;;6.37;;
11151;SDS011;5630;49.342;10.802;2022-07-23T08:02:19;7.00;;;6.40;;
11151;SDS011;5630;49.342;10.802;2022-07-23T08:04:44;9.17;;;6.47;;
11151;SDS011;5630;49.342;10.802;2022-07-23T08:07:10;13.47;;;6.60;;
11151;SDS011;5630;49.342;10.802;2022-07-23T08:09:35;11.53;;;6.67;;
11151;SDS011;5630;49.342;10.802;2022-07-23T08:12:01;7.17;;;6.47;;
11151;SDS011;5630;49.342;10.802;2022-07-23T08:14:26;9.20;;;6.60;;
11151;SDS011;5630;49.342;10.802;2022-07-23T08:16:52;10.80;;;6.63;;
11151;SDS011;5630;49.342;10.802;2022-07-23T08:19:17;11.43;;;6.67;;
11151;SDS011;5630;49.342;10.802;2022-07-23T08:21:43;7.00;;;6.37;;
11151;SDS011;5630;49.342;10.802;2022-07-23T08:24:08;7.63;;;6.00;;
11151;SDS011;5630;49.342;10.802;2022-07-23T08:26:34;8.67;;;6.77;;
11151;SDS011;5630;49.342;10.802;2022-07-23T08:29:00;7.67;;;6.73;;
11151;SDS011;5630;49.342;10.802;2022-07-23T08:31:25;7.07;;;6.17;;
11151;SDS011;5630;49.342;10.802;2022-07-23T08:33:51;8.47;;;6.17;;
11151;SDS011;5630;49.342;10.802;2022-07-23T08:36:17;7.20;;;5.70;;
11151;SDS011;5630;49.342;10.802;2022-07-23T08:38:43;14.83;;;7.20;;
11151;SDS011;5630;49.342;10.802;2022-07-23T08:41:08;12.10;;;5.90;;
11151;SDS011;5630;49.342;10.802;2022-07-23T08:43:34;9.70;;;6.13;;
11151;SDS011;5630;49.342;10.802;2022-07-23T08:46:01;10.17;;;6.40;;
11151;SDS011;5630;49.342;10.802;2022-07-23T08:48:32;13.50;;;6.87;;
11151;SDS011;5630;49.342;10.802;2022-07-23T08:51:00;9.77;;;7.10;;
11151;SDS011;5630;49.342;10.802;2022-07-23T08:53:27;10.20;;;7.10;;
11151;SDS011;5630;49.342;10.802;2022-07-23T08:55:55;14.20;;;7.50;;
11151;SDS011;5630;49.342;10.802;2022-07-23T08:58:22;11.97;;;7.50;;
11151;SDS011;5630;49.342;10.802;2022-07-23T09:00:48;12.13;;;7.20;;
11151;SDS011;5630;49.342;10.802;2022-07-23T09:03:15;13.53;;;7.57;;
11151;SDS011;5630;49.342;10.802;2022-07-23T09:05:41;14.63;;;8.20;;
11151;SDS011;5630;49.342;10.802;2022-07-23T09:08:11;9.23;;;7.47;;
11151;SDS011;5630;49.342;10.802;2022-07-23T09:13:26;8.50;;;6.73;;
11151;SDS011;5630;49.342;10.802;2022-07-23T09:15:53;8.93;;;6.50;;
11151;SDS011;5630;49.342;10.802;2022-07-23T09:18:27;8.77;;;6.80;;
11151;SDS011;5630;49.342;10.802;2022-07-23T09:23:36;7.83;;;5.70;;
11151;SDS011;5630;49.342;10.802;2022-07-23T09:28:56;7.00;;;6.03;;
11151;SDS011;5630;49.342;10.802;2022-07-23T09:31:30;6.97;;;6.13;;
11151;SDS011;5630;49.342;10.802;2022-07-23T09:34:20;6.67;;;5.97;;
11151;SDS011;5630;49.342;10.802;2022-07-23T09:37:08;6.90;;;5.90;;
11151;SDS011;5630;49.342;10.802;2022-07-23T09:39:38;7.03;;;5.70;;
11151;SDS011;5630;49.342;10.802;2022-07-23T09:44:44;7.37;;;5.83;;
11151;SDS011;5630;49.342;10.802;2022-07-23T09:47:11;9.50;;;6.63;;
11151;SDS011;5630;49.342;10.802;2022-07-23T09:49:36;7.33;;;6.53;;
11151;SDS011;5630;49.342;10.802;2022-07-23T09:52:02;7.30;;;6.50;;
11151;SDS011;5630;49.342;10.802;2022-07-23T09:54:29;6.43;;;5.73;;
11151;SDS011;5630;49.342;10.802;2022-07-23T09:57:03;9.27;;;6.30;;
11151;SDS011;5630;49.342;10.802;2022-07-23T09:59:33;6.53;;;5.93;;
11151;SDS011;5630;49.342;10.802;2022-07-23T10:02:00;8.13;;;6.33;;
11151;SDS011;5630;49.342;10.802;2022-07-23T10:04:27;6.80;;;6.10;;
11151;SDS011;5630;49.342;10.802;2022-07-23T10:06:55;6.27;;;5.67;;
11151;SDS011;5630;49.342;10.802;2022-07-23T10:09:23;8.10;;;6.50;;
11151;SDS011;5630;49.342;10.802;2022-07-23T10:11:52;6.73;;;5.90;;
11151;SDS011;5630;49.342;10.802;2022-07-23T10:14:24;8.37;;;6.53;;
11151;SDS011;5630;49.342;10.802;2022-07-23T10:16:50;7.60;;;6.40;;
11151;SDS011;5630;49.342;10.802;2022-07-23T10:19:16;5.90;;;5.30;;
11151;SDS011;5630;49.342;10.802;2022-07-23T10:21:46;6.57;;;5.90;;
11151;SDS011;5630;49.342;10.802;2022-07-23T10:24:17;6.90;;;6.03;;
11151;SDS011;5630;49.342;10.802;2022-07-23T10:26:58;7.00;;;6.30;;
11151;SDS011;5630;49.342;10.802;2022-07-23T10:32:17;8.33;;;6.50;;
11151;SDS011;5630;49.342;10.802;2022-07-23T10:34:51;7.57;;;6.77;;
11151;SDS011;5630;49.342;10.802;2022-07-23T10:37:28;8.10;;;6.90;;
11151;SDS011;5630;49.342;10.802;2022-07-23T10:42:47;7.80;;;6.70;;
11151;SDS011;5630;49.342;10.802;2022-07-23T10:48:12;7.97;;;6.40;;
11151;SDS011;5630;49.342;10.802;2022-07-23T10:56:16;8.30;;;6.37;;
11151;SDS011;5630;49.342;10.802;2022-07-23T10:58:46;7.30;;;6.60;;
11151;SDS011;5630;49.342;10.802;2022-07-23T11:03:59;6.90;;;6.30;;
11151;SDS011;5630;49.342;10.802;2022-07-23T11:12:31;6.93;;;6.13;;
11151;SDS011;5630;49.342;10.802;2022-07-23T11:17:24;6.60;;;6.00;;
11151;SDS011;5630;49.342;10.802;2022-07-23T11:25:12;6.43;;;5.70;;
11151;SDS011;5630;49.342;10.802;2022-07-23T11:27:53;6.63;;;5.87;;
11151;SDS011;5630;49.342;10.802;2022-07-23T11:32:54;5.90;;;5.30;;
11151;SDS011;5630;49.342;10.802;2022-07-23T11:35:40;7.27;;;5.47;;
11151;SDS011;5630;49.342;10.802;2022-07-23T11:40:43;5.63;;;5.00;;
11151;SDS011;5630;49.342;10.802;2022-07-23T11:43:11;5.63;;;5.03;;
11151;SDS011;5630;49.342;10.802;2022-07-23T11:45:44;7.30;;;5.63;;
11151;SDS011;5630;49.342;10.802;2022-07-23T11:48:18;5.93;;;5.43;;
11151;SDS011;5630;49.342;10.802;2022-07-23T11:50:49;5.90;;;5.30;;
11151;SDS011;5630;49.342;10.802;2022-07-23T11:53:49;6.05;;;5.50;;
11151;SDS011;5630;49.342;10.802;2022-07-23T11:56:10;6.07;;;5.43;;
11151;SDS011;5630;49.342;10.802;2022-07-23T11:58:36;6.03;;;5.33;;
11151;SDS011;5630;49.342;10.802;2022-07-23T12:01:03;6.33;;;5.37;;
11151;SDS011;5630;49.342;10.802;2022-07-23T12:03:29;6.00;;;5.30;;
11151;SDS011;5630;49.342;10.802;2022-07-23T12:05:58;5.47;;;4.97;;
11151;SDS011;5630;49.342;10.802;2022-07-23T12:08:24;5.47;;;5.00;;
11151;SDS011;5630;49.342;10.802;2022-07-23T12:10:50;6.40;;;5.03;;
11151;SDS011;5630;49.342;10.802;2022-07-23T12:13:17;5.80;;;5.30;;
11151;SDS011;5630;49.342;10.802;2022-07-23T12:15:45;4.93;;;4.40;;
11151;SDS011;5630;49.342;10.802;2022-07-23T12:18:14;7.33;;;5.10;;
11151;SDS011;5630;49.342;10.802;2022-07-23T12:20:43;6.07;;;5.23;;
11151;SDS011;5630;49.342;10.802;2022-07-23T12:23:12;6.77;;;5.10;;
11151;SDS011;5630;49.342;10.802;2022-07-23T12:25:40;5.90;;;4.90;;
11151;SDS011;5630;49.342;10.802;2022-07-23T12:28:12;5.67;;;5.17;;
11151;SDS011;5630;49.342;10.802;2022-07-23T12:30:40;6.93;;;5.47;;
11151;SDS011;5630;49.342;10.802;2022-07-23T12:33:08;5.90;;;5.30;;
11151;SDS011;5630;49.342;10.802;2022-07-23T12:35:39;5.13;;;4.43;;
11151;SDS011;5630;49.342;10.802;2022-07-23T12:38:08;5.50;;;4.90;;
11151;SDS011;5630;49.342;10.802;2022-07-23T12:40:46;5.77;;;5.27;;
11151;SDS011;5630;49.342;10.802;2022-07-23T12:43:20;6.80;;;4.77;;
11151;SDS011;5630;49.342;10.802;2022-07-23T12:45:49;8.57;;;5.23;;
11151;SDS011;5630;49.342;10.802;2022-07-23T12:48:22;5.63;;;4.80;;
11151;SDS011;5630;49.342;10.802;2022-07-23T12:51:05;6.27;;;5.23;;
11151;SDS011;5630;49.342;10.802;2022-07-23T12:53:39;6.80;;;5.77;;
11151;SDS011;5630;49.342;10.802;2022-07-23T12:56:16;9.23;;;5.73;;
11151;SDS011;5630;49.342;10.802;2022-07-23T12:59:05;6.10;;;5.50;;
11151;SDS011;5630;49.342;10.802;2022-07-23T13:01:36;9.13;;;5.90;;
11151;SDS011;5630;49.342;10.802;2022-07-23T13:04:07;6.10;;;5.57;;
11151;SDS011;5630;49.342;10.802;2022-07-23T13:09:05;6.27;;;5.67;;
11151;SDS011;5630;49.342;10.802;2022-07-23T13:11:33;6.57;;;5.47;;
11151;SDS011;5630;49.342;10.802;2022-07-23T13:13:59;6.23;;;5.63;;
11151;SDS011;5630;49.342;10.802;2022-07-23T13:16:29;6.03;;;5.53;;
11151;SDS011;5630;49.342;10.802;2022-07-23T13:18:56;7.47;;;6.10;;
11151;SDS011;5630;49.342;10.802;2022-07-23T13:21:22;6.07;;;5.57;;
11151;SDS011;5630;49.342;10.802;2022-07-23T13:23:48;6.47;;;5.33;;
11151;SDS011;5630;49.342;10.802;2022-07-23T13:26:14;6.87;;;5.20;;
11151;SDS011;5630;49.342;10.802;2022-07-23T13:28:40;6.50;;;5.90;;
11151;SDS011;5630;49.342;10.802;2022-07-23T13:31:06;5.90;;;5.30;;
11151;SDS011;5630;49.342;10.802;2022-07-23T13:33:32;6.50;;;5.87;;
11151;SDS011;5630;49.342;10.802;2022-07-23T13:35:58;6.63;;;6.03;;
11151;SDS011;5630;49.342;10.802;2022-07-23T13:38:23;7.47;;;5.80;;
11151;SDS011;5630;49.342;10.802;2022-07-23T13:40:50;6.80;;;6.20;;
11151;SDS011;5630;49.342;10.802;2022-07-23T13:43:17;6.77;;;6.17;;
11151;SDS011;5630;49.342;10.802;2022-07-23T13:45:44;7.10;;;6.40;;
11151;SDS011;5630;49.342;10.802;2022-07-23T13:48:11;8.60;;;6.47;;
11151;SDS011;5630;49.342;10.802;2022-07-23T13:50:39;6.30;;;5.70;;
11151;SDS011;5630;49.342;10.802;2022-07-23T13:53:06;6.23;;;5.63;;
11151;SDS011;5630;49.342;10.802;2022-07-23T13:55:34;8.63;;;6.20;;
11151;SDS011;5630;49.342;10.802;2022-07-23T13:58:01;9.17;;;6.30;;
11151;SDS011;5630;49.342;10.802;2022-07-23T14:00:28;6.80;;;6.00;;
11151;SDS011;5630;49.342;10.802;2022-07-23T14:02:55;8.40;;;6.20;;
11151;SDS011;5630;49.342;10.802;2022-07-23T14:05:22;6.80;;;6.20;;
11151;SDS011;5630;49.342;10.802;2022-07-23T14:07:47;6.97;;;6.20;;
11151;SDS011;5630;49.342;10.802;2022-07-23T14:10:16;6.97;;;5.80;;
11151;SDS011;5630;49.342;10.802;2022-07-23T14:12:43;6.90;;;6.20;;
11151;SDS011;5630;49.342;10.802;2022-07-23T14:15:09;7.37;;;6.20;;
11151;SDS011;5630;49.342;10.802;2022-07-23T14:17:36;7.67;;;6.87;;
11151;SDS011;5630;49.342;10.802;2022-07-23T14:20:02;7.30;;;6.20;;
11151;SDS011;5630;49.342;10.802;2022-07-23T14:22:29;6.80;;;6.20;;
11151;SDS011;5630;49.342;10.802;2022-07-23T14:24:55;8.07;;;6.40;;
11151;SDS011;5630;49.342;10.802;2022-07-23T14:27:23;6.93;;;6.27;;
11151;SDS011;5630;49.342;10.802;2022-07-23T14:29:49;6.47;;;5.63;;
11151;SDS011;5630;49.342;10.802;2022-07-23T14:32:15;6.37;;;5.87;;
11151;SDS011;5630;49.342;10.802;2022-07-23T14:34:40;7.33;;;5.60;;
11151;SDS011;5630;49.342;10.802;2022-07-23T14:37:06;5.90;;;5.40;;
11151;SDS011;5630;49.342;10.802;2022-07-23T14:39:32;6.60;;;6.00;;
11151;SDS011;5630;49.342;10.802;2022-07-23T14:41:57;8.37;;;6.50;;
11151;SDS011;5630;49.342;10.802;2022-07-23T14:44:23;7.37;;;6.67;;
11151;SDS011;5630;49.342;10.802;2022-07-23T14:46:49;6.97;;;6.37;;
11151;SDS011;5630;49.342;10.802;2022-07-23T14:49:15;6.93;;;6.23;;
11151;SDS011;5630;49.342;10.802;2022-07-23T14:51:40;8.23;;;6.20;;
11151;SDS011;5630;49.342;10.802;2022-07-23T14:54:07;6.67;;;6.03;;
11151;SDS011;5630;49.342;10.802;2022-07-23T14:56:33;8.00;;;6.10;;
11151;SDS011;5630;49.342;10.802;2022-07-23T14:58:58;8.20;;;6.37;;
11151;SDS011;5630;49.342;10.802;2022-07-23T15:01:24;7.03;;;6.33;;
11151;SDS011;5630;49.342;10.802;2022-07-23T15:03:50;7.57;;;6.80;;
11151;SDS011;5630;49.342;10.802;2022-07-23T15:06:16;6.97;;;6.27;;
11151;SDS011;5630;49.342;10.802;2022-07-23T15:08:42;8.27;;;6.47;;
11151;SDS011;5630;49.342;10.802;2022-07-23T15:11:08;7.60;;;5.97;;
11151;SDS011;5630;49.342;10.802;2022-07-23T15:13:37;6.73;;;6.07;;
11151;SDS011;5630;49.342;10.802;2022-07-23T15:16:03;6.67;;;5.50;;
11151;SDS011;5630;49.342;10.802;2022-07-23T15:18:29;7.63;;;5.73;;
11151;SDS011;5630;49.342;10.802;2022-07-23T15:20:55;9.13;;;5.87;;
11151;SDS011;5630;49.342;10.802;2022-07-23T15:23:21;9.27;;;4.83;;
11151;SDS011;5630;49.342;10.802;2022-07-23T15:25:46;6.77;;;5.90;;
11151;SDS011;5630;49.342;10.802;2022-07-23T15:28:12;6.60;;;5.90;;
11151;SDS011;5630;49.342;10.802;2022-07-23T15:30:37;8.27;;;5.80;;
11151;SDS011;5630;49.342;10.802;2022-07-23T15:33:03;9.27;;;6.10;;